sensor_id;sensor_type;location;lat;lon;timestamp;P1;durP1;ratioP1;P2;durP2;ratioP2
15812;SDS011;8007;51.404;6.304;2023-07-31T00:00:21;14.10;;;4.53;;
15812;SDS011;8007;51.404;6.304;2023-07-31T00:02:25;13.40;;;4.57;;
15812;SDS011;8007;51.404;6.304;2023-07-31T00:04:29;10.67;;;4.87;;
15812;SDS011;8007;51.404;6.304;2023-07-31T00:06:32;10.87;;;4.77;;
15812;SDS011;8007;51.404;6.304;2023-07-31T00:08:33;13.00;;;4.43;;
15812;SDS011;8007;51.404;6.304;2023-07-31T00:10:35;10.13;;;4.60;;
15812;SDS011;8007;51.404;6.304;2023-07-31T00:12:39;11.87;;;4.60;;
15812;SDS011;8007;51.404;6.304;2023-07-31T00:14:43;13.97;;;4.73;;
15812;SDS011;8007;51.404;6.304;2023-07-31T00:16:47;19.37;;;5.33;;
15812;SDS011;8007;51.404;6.304;2023-07-31T00:18:53;11.37;;;4.27;;
15812;SDS011;8007;51.404;6.304;2023-07-31T00:20:59;14.13;;;4.60;;
15812;SDS011;8007;51.404;6.304;2023-07-31T00:23:03;11.30;;;4.30;;
15812;SDS011;8007;51.404;6.304;2023-07-31T00:25:06;11.33;;;4.83;;
15812;SDS011;8007;51.404;6.304;2023-07-31T00:27:10;9.23;;;4.20;;
15812;SDS011;8007;51.404;6.304;2023-07-31T00:29:12;12.43;;;4.20;;
15812;SDS011;8007;51.404;6.304;2023-07-31T00:31:15;12.53;;;4.13;;
15812;SDS011;8007;51.404;6.304;2023-07-31T00:33:21;12.57;;;4.40;;
15812;SDS011;8007;51.404;6.304;2023-07-31T00:35:24;13.23;;;4.50;;
15812;SDS011;8007;51.404;6.304;2023-07-31T00:37:26;11.00;;;4.50;;
15812;SDS011;8007;51.404;6.304;2023-07-31T00:39:29;15.23;;;4.43;;
15812;SDS011;8007;51.404;6.304;2023-07-31T00:41:32;11.33;;;4.40;;
15812;SDS011;8007;51.404;6.304;2023-07-31T00:43:33;8.43;;;4.13;;
15812;SDS011;8007;51.404;6.304;2023-07-31T00:45:35;11.67;;;4.47;;
15812;SDS011;8007;51.404;6.304;2023-07-31T00:47:38;8.60;;;3.73;;
15812;SDS011;8007;51.404;6.304;2023-07-31T00:49:42;13.07;;;4.20;;
15812;SDS011;8007;51.404;6.304;2023-07-31T00:51:45;13.07;;;4.20;;
15812;SDS011;8007;51.404;6.304;2023-07-31T00:53:48;14.17;;;4.13;;
15812;SDS011;8007;51.404;6.304;2023-07-31T00:55:51;6.30;;;3.27;;
15812;SDS011;8007;51.404;6.304;2023-07-31T00:57:54;9.70;;;5.03;;
15812;SDS011;8007;51.404;6.304;2023-07-31T00:59:58;9.27;;;3.80;;
15812;SDS011;8007;51.404;6.304;2023-07-31T01:02:00;9.30;;;4.30;;
15812;SDS011;8007;51.404;6.304;2023-07-31T01:04:03;12.70;;;4.30;;
15812;SDS011;8007;51.404;6.304;2023-07-31T01:06:13;9.40;;;4.27;;
15812;SDS011;8007;51.404;6.304;2023-07-31T01:08:37;11.60;;;4.27;;
15812;SDS011;8007;51.404;6.304;2023-07-31T01:10:51;13.77;;;4.40;;
15812;SDS011;8007;51.404;6.304;2023-07-31T01:13:09;13.87;;;4.30;;
15812;SDS011;8007;51.404;6.304;2023-07-31T01:15:12;12.80;;;3.70;;
15812;SDS011;8007;51.404;6.304;2023-07-31T01:17:17;10.77;;;3.50;;
15812;SDS011;8007;51.404;6.304;2023-07-31T01:19:21;9.03;;;3.23;;
15812;SDS011;8007;51.404;6.304;2023-07-31T01:21:30;11.63;;;3.37;;
15812;SDS011;8007;51.404;6.304;2023-07-31T01:23:51;8.80;;;3.63;;
15812;SDS011;8007;51.404;6.304;2023-07-31T01:26:09;12.93;;;3.83;;
15812;SDS011;8007;51.404;6.304;2023-07-31T01:28:14;16.10;;;3.80;;
15812;SDS011;8007;51.404;6.304;2023-07-31T01:30:21;10.70;;;4.00;;
15812;SDS011;8007;51.404;6.304;2023-07-31T01:32:29;11.40;;;3.40;;
15812;SDS011;8007;51.404;6.304;2023-07-31T01:34:32;16.10;;;4.23;;
15812;SDS011;8007;51.404;6.304;2023-07-31T01:36:33;11.97;;;4.27;;
15812;SDS011;8007;51.404;6.304;2023-07-31T01:38:36;13.03;;;3.90;;
15812;SDS011;8007;51.404;6.304;2023-07-31T01:40:40;13.10;;;4.37;;
15812;SDS011;8007;51.404;6.304;2023-07-31T01:42:45;10.50;;;3.90;;
15812;SDS011;8007;51.404;6.304;2023-07-31T01:44:48;9.40;;;4.10;;
15812;SDS011;8007;51.404;6.304;2023-07-31T01:46:50;10.77;;;3.47;;
15812;SDS011;8007;51.404;6.304;2023-07-31T01:48:53;11.03;;;3.67;;
15812;SDS011;8007;51.404;6.304;2023-07-31T01:50:55;8.33;;;4.17;;
15812;SDS011;8007;51.404;6.304;2023-07-31T01:52:57;14.40;;;3.70;;
15812;SDS011;8007;51.404;6.304;2023-07-31T01:55:00;7.80;;;3.60;;
15812;SDS011;8007;51.404;6.304;2023-07-31T01:57:03;15.20;;;3.67;;
15812;SDS011;8007;51.404;6.304;2023-07-31T01:59:08;10.30;;;3.87;;
15812;SDS011;8007;51.404;6.304;2023-07-31T02:01:09;10.47;;;3.67;;
15812;SDS011;8007;51.404;6.304;2023-07-31T02:03:12;12.83;;;4.03;;
15812;SDS011;8007;51.404;6.304;2023-07-31T02:05:15;12.67;;;4.03;;
15812;SDS011;8007;51.404;6.304;2023-07-31T02:07:17;7.53;;;3.57;;
15812;SDS011;8007;51.404;6.304;2023-07-31T02:09:20;11.07;;;4.33;;
15812;SDS011;8007;51.404;6.304;2023-07-31T02:11:22;8.63;;;3.23;;
15812;SDS011;8007;51.404;6.304;2023-07-31T02:13:25;10.87;;;3.77;;
15812;SDS011;8007;51.404;6.304;2023-07-31T02:15:29;14.10;;;3.77;;
15812;SDS011;8007;51.404;6.304;2023-07-31T02:17:32;10.60;;;3.30;;
15812;SDS011;8007;51.404;6.304;2023-07-31T02:19:33;12.87;;;4.07;;
15812;SDS011;8007;51.404;6.304;2023-07-31T02:21:37;9.63;;;3.97;;
15812;SDS011;8007;51.404;6.304;2023-07-31T02:23:43;9.53;;;3.80;;
15812;SDS011;8007;51.404;6.304;2023-07-31T02:25:45;13.27;;;3.60;;
15812;SDS011;8007;51.404;6.304;2023-07-31T02:27:48;11.23;;;4.47;;
15812;SDS011;8007;51.404;6.304;2023-07-31T02:29:51;7.87;;;3.77;;
15812;SDS011;8007;51.404;6.304;2023-07-31T02:31:55;14.97;;;4.20;;
15812;SDS011;8007;51.404;6.304;2023-07-31T02:33:58;10.63;;;4.43;;
15812;SDS011;8007;51.404;6.304;2023-07-31T02:36:00;12.10;;;4.13;;
15812;SDS011;8007;51.404;6.304;2023-07-31T02:38:04;18.37;;;3.93;;
15812;SDS011;8007;51.404;6.304;2023-07-31T02:40:08;10.40;;;4.87;;
15812;SDS011;8007;51.404;6.304;2023-07-31T02:42:11;9.53;;;3.57;;
15812;SDS011;8007;51.404;6.304;2023-07-31T02:44:14;9.53;;;3.70;;
15812;SDS011;8007;51.404;6.304;2023-07-31T02:46:17;9.73;;;4.00;;
15812;SDS011;8007;51.404;6.304;2023-07-31T02:48:21;10.13;;;3.87;;
15812;SDS011;8007;51.404;6.304;2023-07-31T02:50:26;7.30;;;3.50;;
15812;SDS011;8007;51.404;6.304;2023-07-31T02:52:30;16.00;;;4.60;;
15812;SDS011;8007;51.404;6.304;2023-07-31T02:54:33;16.40;;;4.47;;
15812;SDS011;8007;51.404;6.304;2023-07-31T02:56:40;12.43;;;4.30;;
15812;SDS011;8007;51.404;6.304;2023-07-31T02:58:45;10.80;;;3.77;;
15812;SDS011;8007;51.404;6.304;2023-07-31T03:00:48;11.07;;;4.17;;
15812;SDS011;8007;51.404;6.304;2023-07-31T03:02:51;9.77;;;3.57;;
15812;SDS011;8007;51.404;6.304;2023-07-31T03:04:55;9.97;;;3.80;;
15812;SDS011;8007;51.404;6.304;2023-07-31T03:06:56;13.17;;;4.03;;
15812;SDS011;8007;51.404;6.304;2023-07-31T03:09:01;11.63;;;4.10;;
15812;SDS011;8007;51.404;6.304;2023-07-31T03:11:04;11.13;;;3.60;;
15812;SDS011;8007;51.404;6.304;2023-07-31T03:13:07;14.53;;;4.07;;
15812;SDS011;8007;51.404;6.304;2023-07-31T03:15:10;13.47;;;3.80;;
15812;SDS011;8007;51.404;6.304;2023-07-31T03:17:13;11.40;;;4.07;;
15812;SDS011;8007;51.404;6.304;2023-07-31T03:19:18;12.33;;;4.27;;
15812;SDS011;8007;51.404;6.304;2023-07-31T03:21:22;12.60;;;3.73;;
15812;SDS011;8007;51.404;6.304;2023-07-31T03:23:25;12.63;;;4.50;;
15812;SDS011;8007;51.404;6.304;2023-07-31T03:25:31;10.93;;;4.10;;
15812;SDS011;8007;51.404;6.304;2023-07-31T03:27:34;13.50;;;4.17;;
15812;SDS011;8007;51.404;6.304;2023-07-31T03:29:42;14.90;;;4.43;;
15812;SDS011;8007;51.404;6.304;2023-07-31T03:31:44;10.33;;;3.70;;
15812;SDS011;8007;51.404;6.304;2023-07-31T03:33:48;10.53;;;3.73;;
15812;SDS011;8007;51.404;6.304;2023-07-31T03:35:51;11.63;;;3.93;;
15812;SDS011;8007;51.404;6.304;2023-07-31T03:37:55;10.23;;;4.23;;
15812;SDS011;8007;51.404;6.304;2023-07-31T03:39:58;12.90;;;4.13;;
15812;SDS011;8007;51.404;6.304;2023-07-31T03:42:04;11.30;;;4.10;;
15812;SDS011;8007;51.404;6.304;2023-07-31T03:44:10;8.87;;;4.07;;
15812;SDS011;8007;51.404;6.304;2023-07-31T03:46:13;9.80;;;3.87;;
15812;SDS011;8007;51.404;6.304;2023-07-31T03:48:34;10.67;;;3.77;;
15812;SDS011;8007;51.404;6.304;2023-07-31T03:50:37;10.83;;;3.97;;
15812;SDS011;8007;51.404;6.304;2023-07-31T03:52:41;11.40;;;4.20;;
15812;SDS011;8007;51.404;6.304;2023-07-31T03:54:45;11.27;;;4.50;;
15812;SDS011;8007;51.404;6.304;2023-07-31T03:56:50;11.73;;;4.03;;
15812;SDS011;8007;51.404;6.304;2023-07-31T03:58:53;9.63;;;4.27;;
15812;SDS011;8007;51.404;6.304;2023-07-31T04:01:07;9.20;;;4.23;;
15812;SDS011;8007;51.404;6.304;2023-07-31T04:03:19;10.63;;;4.20;;
15812;SDS011;8007;51.404;6.304;2023-07-31T04:05:22;11.17;;;3.80;;
15812;SDS011;8007;51.404;6.304;2023-07-31T04:07:30;10.73;;;3.47;;
15812;SDS011;8007;51.404;6.304;2023-07-31T04:09:36;12.03;;;4.63;;
15812;SDS011;8007;51.404;6.304;2023-07-31T04:11:48;6.70;;;3.87;;
15812;SDS011;8007;51.404;6.304;2023-07-31T04:13:51;13.00;;;3.83;;
15812;SDS011;8007;51.404;6.304;2023-07-31T04:16:23;16.60;;;4.30;;
15812;SDS011;8007;51.404;6.304;2023-07-31T04:18:38;12.23;;;4.20;;
15812;SDS011;8007;51.404;6.304;2023-07-31T04:20:40;10.47;;;4.63;;
15812;SDS011;8007;51.404;6.304;2023-07-31T04:23:15;8.30;;;3.63;;
15812;SDS011;8007;51.404;6.304;2023-07-31T04:25:53;6.60;;;3.97;;
15812;SDS011;8007;51.404;6.304;2023-07-31T04:28:07;11.60;;;3.90;;
15812;SDS011;8007;51.404;6.304;2023-07-31T04:30:25;9.97;;;4.07;;
15812;SDS011;8007;51.404;6.304;2023-07-31T04:35:53;8.33;;;4.37;;
15812;SDS011;8007;51.404;6.304;2023-07-31T04:44:26;9.63;;;4.77;;
15812;SDS011;8007;51.404;6.304;2023-07-31T04:48:50;13.73;;;4.20;;
15812;SDS011;8007;51.404;6.304;2023-07-31T04:50:53;10.53;;;4.03;;
15812;SDS011;8007;51.404;6.304;2023-07-31T04:52:56;7.30;;;3.70;;
15812;SDS011;8007;51.404;6.304;2023-07-31T04:55:18;10.60;;;4.20;;
15812;SDS011;8007;51.404;6.304;2023-07-31T04:57:21;9.63;;;4.30;;
15812;SDS011;8007;51.404;6.304;2023-07-31T04:59:25;11.20;;;4.43;;
15812;SDS011;8007;51.404;6.304;2023-07-31T05:01:35;11.47;;;4.03;;
15812;SDS011;8007;51.404;6.304;2023-07-31T05:03:52;8.90;;;3.80;;
15812;SDS011;8007;51.404;6.304;2023-07-31T05:06:07;9.40;;;4.33;;
15812;SDS011;8007;51.404;6.304;2023-07-31T05:11:11;7.70;;;3.60;;
15812;SDS011;8007;51.404;6.304;2023-07-31T05:13:35;8.77;;;4.20;;
15812;SDS011;8007;51.404;6.304;2023-07-31T05:15:57;8.47;;;4.00;;
15812;SDS011;8007;51.404;6.304;2023-07-31T05:20:48;9.90;;;4.37;;
15812;SDS011;8007;51.404;6.304;2023-07-31T05:22:57;8.57;;;4.40;;
15812;SDS011;8007;51.404;6.304;2023-07-31T05:25:28;13.63;;;4.37;;
15812;SDS011;8007;51.404;6.304;2023-07-31T05:27:46;10.63;;;4.40;;
15812;SDS011;8007;51.404;6.304;2023-07-31T05:29:48;7.57;;;3.87;;
15812;SDS011;8007;51.404;6.304;2023-07-31T05:31:52;10.27;;;4.40;;
15812;SDS011;8007;51.404;6.304;2023-07-31T05:33:55;9.33;;;4.13;;
15812;SDS011;8007;51.404;6.304;2023-07-31T05:35:59;12.53;;;4.53;;
15812;SDS011;8007;51.404;6.304;2023-07-31T05:38:02;6.53;;;4.33;;
15812;SDS011;8007;51.404;6.304;2023-07-31T05:40:05;7.30;;;4.43;;
15812;SDS011;8007;51.404;6.304;2023-07-31T05:42:12;8.50;;;4.03;;
15812;SDS011;8007;51.404;6.304;2023-07-31T05:44:15;7.67;;;4.33;;
15812;SDS011;8007;51.404;6.304;2023-07-31T05:46:17;6.90;;;4.10;;
15812;SDS011;8007;51.404;6.304;2023-07-31T05:48:23;7.13;;;3.93;;
15812;SDS011;8007;51.404;6.304;2023-07-31T05:50:25;8.63;;;4.00;;
15812;SDS011;8007;51.404;6.304;2023-07-31T05:52:28;9.00;;;4.60;;
15812;SDS011;8007;51.404;6.304;2023-07-31T05:54:31;8.53;;;4.20;;
15812;SDS011;8007;51.404;6.304;2023-07-31T05:56:34;7.83;;;3.87;;
15812;SDS011;8007;51.404;6.304;2023-07-31T05:58:37;7.10;;;4.07;;
15812;SDS011;8007;51.404;6.304;2023-07-31T06:00:39;6.57;;;3.90;;
15812;SDS011;8007;51.404;6.304;2023-07-31T06:02:42;8.50;;;4.43;;
15812;SDS011;8007;51.404;6.304;2023-07-31T06:04:46;6.47;;;3.90;;
15812;SDS011;8007;51.404;6.304;2023-07-31T06:06:49;8.00;;;4.60;;
15812;SDS011;8007;51.404;6.304;2023-07-31T06:08:52;5.87;;;4.37;;
15812;SDS011;8007;51.404;6.304;2023-07-31T06:10:55;8.47;;;4.33;;
15812;SDS011;8007;51.404;6.304;2023-07-31T06:12:58;6.73;;;4.17;;
15812;SDS011;8007;51.404;6.304;2023-07-31T06:15:01;6.73;;;4.10;;
15812;SDS011;8007;51.404;6.304;2023-07-31T06:17:20;11.83;;;4.60;;
15812;SDS011;8007;51.404;6.304;2023-07-31T06:22:09;7.43;;;4.57;;
15812;SDS011;8007;51.404;6.304;2023-07-31T06:24:12;7.57;;;4.10;;
15812;SDS011;8007;51.404;6.304;2023-07-31T06:26:24;6.90;;;4.20;;
15812;SDS011;8007;51.404;6.304;2023-07-31T06:28:27;6.07;;;4.03;;
15812;SDS011;8007;51.404;6.304;2023-07-31T06:30:30;6.70;;;4.43;;
15812;SDS011;8007;51.404;6.304;2023-07-31T06:32:34;6.40;;;4.23;;
15812;SDS011;8007;51.404;6.304;2023-07-31T06:34:37;7.47;;;4.30;;
15812;SDS011;8007;51.404;6.304;2023-07-31T06:36:39;6.87;;;4.33;;
15812;SDS011;8007;51.404;6.304;2023-07-31T06:38:44;7.20;;;4.73;;
15812;SDS011;8007;51.404;6.304;2023-07-31T06:40:49;9.13;;;4.50;;
15812;SDS011;8007;51.404;6.304;2023-07-31T06:42:54;8.20;;;4.50;;
15812;SDS011;8007;51.404;6.304;2023-07-31T06:44:56;7.00;;;4.73;;
15812;SDS011;8007;51.404;6.304;2023-07-31T06:47:01;5.97;;;4.07;;
15812;SDS011;8007;51.404;6.304;2023-07-31T06:49:08;6.13;;;3.80;;
15812;SDS011;8007;51.404;6.304;2023-07-31T06:51:12;7.87;;;4.43;;
15812;SDS011;8007;51.404;6.304;2023-07-31T06:53:16;6.40;;;4.30;;
15812;SDS011;8007;51.404;6.304;2023-07-31T06:55:20;7.40;;;4.10;;
15812;SDS011;8007;51.404;6.304;2023-07-31T06:57:23;6.30;;;4.13;;
15812;SDS011;8007;51.404;6.304;2023-07-31T06:59:26;6.27;;;4.53;;
15812;SDS011;8007;51.404;6.304;2023-07-31T07:01:29;7.90;;;4.03;;
15812;SDS011;8007;51.404;6.304;2023-07-31T07:03:32;7.77;;;4.33;;
15812;SDS011;8007;51.404;6.304;2023-07-31T07:05:34;6.50;;;4.20;;
15812;SDS011;8007;51.404;6.304;2023-07-31T07:07:37;9.57;;;3.90;;
15812;SDS011;8007;51.404;6.304;2023-07-31T07:09:40;5.70;;;3.93;;
15812;SDS011;8007;51.404;6.304;2023-07-31T07:11:44;7.93;;;4.07;;
15812;SDS011;8007;51.404;6.304;2023-07-31T07:13:47;6.30;;;4.30;;
15812;SDS011;8007;51.404;6.304;2023-07-31T07:15:50;6.00;;;3.97;;
15812;SDS011;8007;51.404;6.304;2023-07-31T07:17:52;6.37;;;3.70;;
15812;SDS011;8007;51.404;6.304;2023-07-31T07:19:55;5.83;;;3.30;;
15812;SDS011;8007;51.404;6.304;2023-07-31T07:21:56;7.83;;;4.60;;
15812;SDS011;8007;51.404;6.304;2023-07-31T07:24:00;7.43;;;3.90;;
15812;SDS011;8007;51.404;6.304;2023-07-31T07:26:02;6.83;;;3.90;;
15812;SDS011;8007;51.404;6.304;2023-07-31T07:28:06;5.57;;;3.37;;
15812;SDS011;8007;51.404;6.304;2023-07-31T07:30:09;4.80;;;3.33;;
15812;SDS011;8007;51.404;6.304;2023-07-31T07:32:12;7.27;;;3.60;;
15812;SDS011;8007;51.404;6.304;2023-07-31T07:34:13;4.87;;;3.10;;
15812;SDS011;8007;51.404;6.304;2023-07-31T07:36:16;7.27;;;3.13;;
15812;SDS011;8007;51.404;6.304;2023-07-31T07:38:18;6.20;;;3.37;;
15812;SDS011;8007;51.404;6.304;2023-07-31T07:40:21;5.27;;;3.43;;
15812;SDS011;8007;51.404;6.304;2023-07-31T07:42:24;3.57;;;2.97;;
15812;SDS011;8007;51.404;6.304;2023-07-31T07:44:27;4.07;;;2.80;;
15812;SDS011;8007;51.404;6.304;2023-07-31T07:46:30;5.83;;;3.43;;
15812;SDS011;8007;51.404;6.304;2023-07-31T07:48:33;4.23;;;3.00;;
15812;SDS011;8007;51.404;6.304;2023-07-31T07:52:41;6.03;;;3.20;;
15812;SDS011;8007;51.404;6.304;2023-07-31T07:54:43;4.20;;;3.33;;
15812;SDS011;8007;51.404;6.304;2023-07-31T07:56:45;5.23;;;2.77;;
15812;SDS011;8007;51.404;6.304;2023-07-31T07:58:48;4.43;;;2.97;;
15812;SDS011;8007;51.404;6.304;2023-07-31T08:00:54;4.83;;;2.90;;
15812;SDS011;8007;51.404;6.304;2023-07-31T08:02:57;3.60;;;2.90;;
15812;SDS011;8007;51.404;6.304;2023-07-31T08:05:00;5.00;;;2.70;;
15812;SDS011;8007;51.404;6.304;2023-07-31T08:07:03;4.80;;;3.00;;
15812;SDS011;8007;51.404;6.304;2023-07-31T08:09:05;5.47;;;2.70;;
15812;SDS011;8007;51.404;6.304;2023-07-31T08:11:09;3.93;;;2.60;;
15812;SDS011;8007;51.404;6.304;2023-07-31T08:13:12;4.80;;;3.03;;
15812;SDS011;8007;51.404;6.304;2023-07-31T08:15:14;5.23;;;3.20;;
15812;SDS011;8007;51.404;6.304;2023-07-31T08:17:18;4.40;;;2.90;;
15812;SDS011;8007;51.404;6.304;2023-07-31T08:19:20;5.10;;;2.97;;
15812;SDS011;8007;51.404;6.304;2023-07-31T08:21:24;4.23;;;2.60;;
15812;SDS011;8007;51.404;6.304;2023-07-31T08:23:26;3.50;;;2.63;;
15812;SDS011;8007;51.404;6.304;2023-07-31T08:25:29;7.87;;;3.10;;
15812;SDS011;8007;51.404;6.304;2023-07-31T08:27:31;3.77;;;2.93;;
15812;SDS011;8007;51.404;6.304;2023-07-31T08:29:33;4.13;;;2.83;;
15812;SDS011;8007;51.404;6.304;2023-07-31T08:31:39;6.40;;;2.90;;
15812;SDS011;8007;51.404;6.304;2023-07-31T08:33:47;7.77;;;2.73;;
15812;SDS011;8007;51.404;6.304;2023-07-31T08:35:51;4.23;;;2.80;;
15812;SDS011;8007;51.404;6.304;2023-07-31T08:37:54;5.73;;;3.30;;
15812;SDS011;8007;51.404;6.304;2023-07-31T08:39:57;4.57;;;2.97;;
15812;SDS011;8007;51.404;6.304;2023-07-31T08:41:59;4.90;;;3.30;;
15812;SDS011;8007;51.404;6.304;2023-07-31T08:44:02;4.17;;;3.10;;
15812;SDS011;8007;51.404;6.304;2023-07-31T08:46:05;3.47;;;2.77;;
15812;SDS011;8007;51.404;6.304;2023-07-31T08:48:09;5.50;;;3.30;;
15812;SDS011;8007;51.404;6.304;2023-07-31T08:50:14;4.10;;;3.60;;
15812;SDS011;8007;51.404;6.304;2023-07-31T08:52:17;6.43;;;3.20;;
15812;SDS011;8007;51.404;6.304;2023-07-31T08:54:20;4.77;;;2.60;;
15812;SDS011;8007;51.404;6.304;2023-07-31T08:56:23;5.00;;;2.57;;
15812;SDS011;8007;51.404;6.304;2023-07-31T08:58:26;4.13;;;2.93;;
15812;SDS011;8007;51.404;6.304;2023-07-31T09:00:30;3.60;;;2.60;;
15812;SDS011;8007;51.404;6.304;2023-07-31T09:02:34;5.07;;;2.80;;
15812;SDS011;8007;51.404;6.304;2023-07-31T09:04:39;4.47;;;2.67;;
15812;SDS011;8007;51.404;6.304;2023-07-31T09:06:43;6.63;;;3.03;;
15812;SDS011;8007;51.404;6.304;2023-07-31T09:08:48;4.23;;;2.50;;
15812;SDS011;8007;51.404;6.304;2023-07-31T09:10:52;4.57;;;2.93;;
15812;SDS011;8007;51.404;6.304;2023-07-31T09:12:54;4.23;;;2.50;;
15812;SDS011;8007;51.404;6.304;2023-07-31T09:14:58;4.80;;;3.13;;
15812;SDS011;8007;51.404;6.304;2023-07-31T09:17:00;4.27;;;2.90;;
15812;SDS011;8007;51.404;6.304;2023-07-31T09:19:03;4.53;;;3.00;;
15812;SDS011;8007;51.404;6.304;2023-07-31T09:21:06;3.17;;;2.60;;
15812;SDS011;8007;51.404;6.304;2023-07-31T09:23:10;3.57;;;3.17;;
15812;SDS011;8007;51.404;6.304;2023-07-31T09:25:14;4.90;;;2.77;;
15812;SDS011;8007;51.404;6.304;2023-07-31T09:27:16;5.83;;;3.23;;
15812;SDS011;8007;51.404;6.304;2023-07-31T09:29:19;5.00;;;2.83;;
15812;SDS011;8007;51.404;6.304;2023-07-31T09:31:31;6.33;;;2.90;;
15812;SDS011;8007;51.404;6.304;2023-07-31T09:33:35;3.90;;;2.87;;
15812;SDS011;8007;51.404;6.304;2023-07-31T09:35:58;5.80;;;2.70;;
15812;SDS011;8007;51.404;6.304;2023-07-31T09:38:03;4.70;;;3.07;;
15812;SDS011;8007;51.404;6.304;2023-07-31T09:40:09;4.47;;;3.20;;
15812;SDS011;8007;51.404;6.304;2023-07-31T09:42:14;5.40;;;3.43;;
15812;SDS011;8007;51.404;6.304;2023-07-31T09:44:38;5.47;;;3.33;;
15812;SDS011;8007;51.404;6.304;2023-07-31T09:46:42;7.53;;;3.43;;
15812;SDS011;8007;51.404;6.304;2023-07-31T09:48:45;6.63;;;3.00;;
15812;SDS011;8007;51.404;6.304;2023-07-31T09:50:47;5.67;;;3.40;;
15812;SDS011;8007;51.404;6.304;2023-07-31T09:52:52;3.73;;;3.00;;
15812;SDS011;8007;51.404;6.304;2023-07-31T09:54:54;3.67;;;2.90;;
15812;SDS011;8007;51.404;6.304;2023-07-31T09:56:58;5.30;;;3.13;;
15812;SDS011;8007;51.404;6.304;2023-07-31T09:59:03;6.10;;;3.50;;
15812;SDS011;8007;51.404;6.304;2023-07-31T10:01:05;5.03;;;3.27;;
15812;SDS011;8007;51.404;6.304;2023-07-31T10:03:09;8.23;;;3.87;;
15812;SDS011;8007;51.404;6.304;2023-07-31T10:05:12;6.53;;;3.60;;
15812;SDS011;8007;51.404;6.304;2023-07-31T10:07:16;4.63;;;3.53;;
15812;SDS011;8007;51.404;6.304;2023-07-31T10:09:19;4.67;;;3.30;;
15812;SDS011;8007;51.404;6.304;2023-07-31T10:11:23;4.80;;;3.50;;
15812;SDS011;8007;51.404;6.304;2023-07-31T10:13:28;5.30;;;3.23;;
15812;SDS011;8007;51.404;6.304;2023-07-31T10:15:32;7.03;;;3.20;;
15812;SDS011;8007;51.404;6.304;2023-07-31T10:17:35;5.20;;;3.40;;
15812;SDS011;8007;51.404;6.304;2023-07-31T10:19:38;5.70;;;2.97;;
15812;SDS011;8007;51.404;6.304;2023-07-31T10:21:42;4.93;;;2.93;;
15812;SDS011;8007;51.404;6.304;2023-07-31T10:23:44;5.07;;;3.40;;
15812;SDS011;8007;51.404;6.304;2023-07-31T10:25:47;5.07;;;3.60;;
15812;SDS011;8007;51.404;6.304;2023-07-31T10:27:57;6.87;;;3.13;;
15812;SDS011;8007;51.404;6.304;2023-07-31T10:30:03;3.70;;;2.90;;
15812;SDS011;8007;51.404;6.304;2023-07-31T10:32:07;4.53;;;2.90;;
15812;SDS011;8007;51.404;6.304;2023-07-31T10:34:11;5.90;;;3.27;;
15812;SDS011;8007;51.404;6.304;2023-07-31T10:36:16;6.63;;;3.10;;
15812;SDS011;8007;51.404;6.304;2023-07-31T10:38:20;4.10;;;2.90;;
15812;SDS011;8007;51.404;6.304;2023-07-31T10:40:23;5.80;;;3.40;;
15812;SDS011;8007;51.404;6.304;2023-07-31T10:42:29;6.53;;;2.87;;
15812;SDS011;8007;51.404;6.304;2023-07-31T10:44:33;5.63;;;2.70;;
15812;SDS011;8007;51.404;6.304;2023-07-31T10:46:38;5.17;;;2.63;;
15812;SDS011;8007;51.404;6.304;2023-07-31T10:48:41;5.83;;;3.37;;
15812;SDS011;8007;51.404;6.304;2023-07-31T10:50:47;4.57;;;2.53;;
15812;SDS011;8007;51.404;6.304;2023-07-31T10:52:51;3.53;;;2.43;;
15812;SDS011;8007;51.404;6.304;2023-07-31T10:57:19;4.37;;;2.83;;
15812;SDS011;8007;51.404;6.304;2023-07-31T10:59:26;3.47;;;2.57;;
15812;SDS011;8007;51.404;6.304;2023-07-31T11:03:55;3.87;;;2.57;;
15812;SDS011;8007;51.404;6.304;2023-07-31T11:06:12;6.27;;;2.50;;
15812;SDS011;8007;51.404;6.304;2023-07-31T11:08:17;3.87;;;2.47;;
15812;SDS011;8007;51.404;6.304;2023-07-31T11:10:25;3.27;;;2.67;;
15812;SDS011;8007;51.404;6.304;2023-07-31T11:12:32;6.20;;;2.50;;
15812;SDS011;8007;51.404;6.304;2023-07-31T11:14:34;4.03;;;2.57;;
15812;SDS011;8007;51.404;6.304;2023-07-31T11:19:08;3.80;;;2.33;;
15812;SDS011;8007;51.404;6.304;2023-07-31T11:21:12;3.37;;;2.17;;
15812;SDS011;8007;51.404;6.304;2023-07-31T11:23:15;5.50;;;2.20;;
15812;SDS011;8007;51.404;6.304;2023-07-31T11:25:18;4.73;;;2.40;;
15812;SDS011;8007;51.404;6.304;2023-07-31T11:27:20;3.37;;;2.33;;
15812;SDS011;8007;51.404;6.304;2023-07-31T11:29:27;3.47;;;2.40;;
15812;SDS011;8007;51.404;6.304;2023-07-31T11:31:30;3.53;;;2.30;;
15812;SDS011;8007;51.404;6.304;2023-07-31T11:33:40;5.63;;;2.33;;
15812;SDS011;8007;51.404;6.304;2023-07-31T11:37:51;2.73;;;2.47;;
15812;SDS011;8007;51.404;6.304;2023-07-31T11:38:33;3.00;;;2.13;;
15812;SDS011;8007;51.404;6.304;2023-07-31T11:40:40;4.93;;;2.30;;
15812;SDS011;8007;51.404;6.304;2023-07-31T11:45:24;3.23;;;2.23;;
15812;SDS011;8007;51.404;6.304;2023-07-31T11:47:28;4.50;;;2.60;;
15812;SDS011;8007;51.404;6.304;2023-07-31T11:52:16;2.23;;;1.93;;
15812;SDS011;8007;51.404;6.304;2023-07-31T11:54:32;3.57;;;2.30;;
15812;SDS011;8007;51.404;6.304;2023-07-31T11:56:39;2.50;;;2.10;;
15812;SDS011;8007;51.404;6.304;2023-07-31T11:58:57;3.27;;;2.07;;
15812;SDS011;8007;51.404;6.304;2023-07-31T12:01:11;3.20;;;2.20;;
15812;SDS011;8007;51.404;6.304;2023-07-31T12:03:29;3.03;;;1.93;;
15812;SDS011;8007;51.404;6.304;2023-07-31T12:05:32;5.17;;;2.00;;
15812;SDS011;8007;51.404;6.304;2023-07-31T12:08:05;2.43;;;2.00;;
15812;SDS011;8007;51.404;6.304;2023-07-31T12:10:11;2.57;;;1.97;;
15812;SDS011;8007;51.404;6.304;2023-07-31T12:15:31;4.17;;;2.40;;
15812;SDS011;8007;51.404;6.304;2023-07-31T12:17:49;6.43;;;2.53;;
15812;SDS011;8007;51.404;6.304;2023-07-31T12:19:52;3.40;;;2.33;;
15812;SDS011;8007;51.404;6.304;2023-07-31T12:21:56;3.60;;;2.40;;
15812;SDS011;8007;51.404;6.304;2023-07-31T12:24:05;2.40;;;2.20;;
15812;SDS011;8007;51.404;6.304;2023-07-31T12:34:45;3.23;;;2.90;;
15812;SDS011;8007;51.404;6.304;2023-07-31T12:36:48;5.90;;;2.43;;
15812;SDS011;8007;51.404;6.304;2023-07-31T12:38:57;5.97;;;2.30;;
15812;SDS011;8007;51.404;6.304;2023-07-31T12:41:15;3.80;;;2.37;;
15812;SDS011;8007;51.404;6.304;2023-07-31T12:43:20;3.53;;;2.50;;
15812;SDS011;8007;51.404;6.304;2023-07-31T12:46:05;3.53;;;2.50;;
15812;SDS011;8007;51.404;6.304;2023-07-31T12:48:12;3.93;;;3.23;;
15812;SDS011;8007;51.404;6.304;2023-07-31T12:55:09;4.90;;;2.93;;
15812;SDS011;8007;51.404;6.304;2023-07-31T12:57:49;4.77;;;2.93;;
15812;SDS011;8007;51.404;6.304;2023-07-31T13:00:06;5.67;;;3.13;;
15812;SDS011;8007;51.404;6.304;2023-07-31T13:09:57;5.20;;;3.20;;
15812;SDS011;8007;51.404;6.304;2023-07-31T13:14:37;5.67;;;3.70;;
15812;SDS011;8007;51.404;6.304;2023-07-31T13:16:39;5.70;;;3.33;;
15812;SDS011;8007;51.404;6.304;2023-07-31T13:21:39;5.40;;;3.63;;
15812;SDS011;8007;51.404;6.304;2023-07-31T13:23:54;6.73;;;3.37;;
15812;SDS011;8007;51.404;6.304;2023-07-31T13:26:14;4.50;;;3.23;;
15812;SDS011;8007;51.404;6.304;2023-07-31T13:31:09;6.73;;;3.63;;
15812;SDS011;8007;51.404;6.304;2023-07-31T13:36:25;4.00;;;3.30;;
15812;SDS011;8007;51.404;6.304;2023-07-31T13:38:48;7.47;;;3.70;;
15812;SDS011;8007;51.404;6.304;2023-07-31T13:47:07;4.87;;;3.17;;
15812;SDS011;8007;51.404;6.304;2023-07-31T13:49:13;5.57;;;3.30;;
15812;SDS011;8007;51.404;6.304;2023-07-31T13:51:48;7.17;;;3.23;;
15812;SDS011;8007;51.404;6.304;2023-07-31T13:53:53;4.47;;;2.90;;
15812;SDS011;8007;51.404;6.304;2023-07-31T13:55:58;8.80;;;3.47;;
15812;SDS011;8007;51.404;6.304;2023-07-31T13:58:03;6.33;;;3.60;;
15812;SDS011;8007;51.404;6.304;2023-07-31T14:05:19;6.20;;;3.87;;
15812;SDS011;8007;51.404;6.304;2023-07-31T14:07:53;8.17;;;3.90;;
15812;SDS011;8007;51.404;6.304;2023-07-31T14:10:28;5.27;;;3.30;;